Buxhai — 9HA3289 — position and weather

sailwx.info

Track history (hours):
 
Tides and Currents Weather Stations Pressure Air Temp Water Temp Dewpoint Dewpoint Depression Visibility Wind Speed Wind Dir Waves Ship Positions

Buxhai

Last reported at 2018-Jun-23 15:00 UTC. Time now 2018-Jun-23 15:22 UTC.
Position N 53°34' E 009°46'.

Length 282 m; draft 9.9 m.

Type: Ship (hazmat cat A). MMSI: 229384000.

Date/timePositionNaut miles runAvg speedWind from/ knotsBaromVisibWave heightAir tempDewpointWater temp
2018-Jun-23 15:00N 53°34' E 009°46'4 8.5
2018-Jun-23 14:30N 53°34' E 009°39'510.0
2018-Jun-23 14:00N 53°37' E 009°33'5 9.2
2018-Jun-23 13:30N 53°42' E 009°30'5 9.8
2018-Jun-23 13:00N 53°45' E 009°24'510.9
2018-Jun-23 12:30N 53°50' E 009°21'612.0
2018-Jun-23 12:00N 53°53' E 009°11'5 9.3
2018-Jun-23 11:30N 53°52' E 009°04'713.9
2018-Jun-23 11:01N 53°50' E 008°52'611.7
2018-Jun-23 10:30N 53°52' E 008°43'1113.7
2018-Jun-23 09:44N 53°59' E 008°28'514.7
2018-Jun-23 09:24N 53°60' E 008°20'512.6
2018-Jun-23 09:00N 53°60' E 008°12'5 9.9
2018-Jun-23 08:29N 53°59' E 008°03'3212.8
2018-Jun-23 06:00N 53°48' E 007°12'6512.8 330 / 251024.5 5.4 13.4 7.216.0
2018-Jun-23 00:54N 53°33' E 005°25'513.4
2018-Jun-23 00:30N 53°32' E 005°17'713.3
2018-Jun-23 00:00N 53°29' E 005°06'613.3
2018-Jun-22 23:30N 53°27' E 004°56'713.6
2018-Jun-22 23:00N 53°25' E 004°45'713.3
2018-Jun-22 22:30N 53°19' E 004°38'713.4
2018-Jun-22 22:00N 53°13' E 004°33'713.3
2018-Jun-22 21:30N 53°07' E 004°28'713.2
2018-Jun-22 21:00N 53°01' E 004°24'713.2
2018-Jun-22 20:30N 52°56' E 004°19'713.3
2018-Jun-22 20:00N 52°50' E 004°13'713.2
2018-Jun-22 19:30N 52°44' E 004°07'918.2
2018-Jun-22 19:00N 52°36' E 004°00'3 7.2 330 / 181029.8 5.4 13.6 6.915.0
2018-Jun-22 18:37N 52°34' E 003°57'213.5
2018-Jun-22 18:27N 52°32' E 003°55'613.3
2018-Jun-22 18:00N 52°26' E 003°53'713.4
2018-Jun-22 17:30N 52°20' E 003°52'713.2
2018-Jun-22 17:00N 52°13' E 003°53'713.7
2018-Jun-22 16:30N 52°06' E 003°55'5 9.7
2018-Jun-22 16:01N 52°02' E 003°54'612.4
2018-Jun-22 15:30N 51°59' E 004°03'2 3.7
2018-Jun-22 15:00N 51°58' E 004°04'0 0.7
2018-Jun-22 14:27N 51°58' E 004°04'0 0.0
2018-Jun-22 14:00N 51°58' E 004°04'0 0.0
2018-Jun-22 13:30N 51°58' E 004°04'0 0.0
2018-Jun-22 12:53N 51°58' E 004°04'0 0.0
2018-Jun-22 12:29N 51°58' E 004°04'0 0.0
2018-Jun-22 11:59N 51°58' E 004°04'0 0.0
2018-Jun-22 11:29N 51°58' E 004°04'0 0.0
2018-Jun-22 10:59N 51°58' E 004°04'0 0.0
2018-Jun-22 10:28N 51°58' E 004°04'0 0.0
2018-Jun-22 09:58N 51°58' E 004°04'0 0.0
2018-Jun-22 09:28N 51°58' E 004°04'0 0.0
2018-Jun-22 08:58N 51°58' E 004°04'0 0.0
2018-Jun-22 08:30N 51°58' E 004°04'0 0.0
2018-Jun-22 08:00N 51°58' E 004°04'0 0.0
2018-Jun-22 07:27N 51°58' E 004°04'0 0.0
2018-Jun-22 07:00N 51°58' E 004°04'0 0.0
2018-Jun-22 06:30N 51°58' E 004°04'0 0.0
2018-Jun-22 06:00N 51°58' E 004°04'0 0.0
2018-Jun-22 05:30N 51°58' E 004°04'0 0.0
2018-Jun-22 04:59N 51°58' E 004°04'0 0.0
2018-Jun-22 04:29N 51°58' E 004°04'0 0.0
2018-Jun-22 03:59N 51°58' E 004°04'0 0.0
2018-Jun-22 03:29N 51°58' E 004°04'0 0.0
2018-Jun-22 03:01N 51°58' E 004°04'0 0.0
2018-Jun-22 02:28N 51°58' E 004°04'0 0.0
2018-Jun-22 01:58N 51°58' E 004°04'0 0.0
2018-Jun-22 01:28N 51°58' E 004°04'0 0.0
2018-Jun-22 00:58N 51°58' E 004°04'0 0.0
2018-Jun-22 00:28N 51°58' E 004°04'0 0.0
2018-Jun-22 00:00N 51°58' E 004°04'0 0.0
2018-Jun-21 23:30N 51°58' E 004°04'0 0.0
2018-Jun-21 23:00N 51°58' E 004°04'1 1.5
2018-Jun-21 22:30N 51°58' E 004°05'3 5.0
2018-Jun-21 22:00N 51°59' E 004°02'3 6.3
2018-Jun-21 21:30N 52°00' E 003°57'4 8.1
2018-Jun-21 21:00N 52°00' E 003°50'5 9.2
2018-Jun-21 20:30N 51°59' E 003°43'714.5
2018-Jun-21 20:00N 51°57' E 003°31'4520.6
2018-Jun-21 17:49N 51°53' E 002°19'620.2
2018-Jun-21 17:31N 51°52' E 002°09'1019.6
2018-Jun-21 17:00N 51°49' E 001°54'917.5
2018-Jun-21 16:31N 51°50' E 001°40'611.2
2018-Jun-21 16:00N 51°54' E 001°34'612.5
2018-Jun-21 15:30N 51°56' E 001°24'4 8.1
2018-Jun-21 15:00N 51°57' E 001°18'0 0.1
2018-Jun-21 14:29N 51°58' E 001°18'0 0.0
2018-Jun-21 13:59N 51°58' E 001°18'0 0.0
2018-Jun-21 13:28N 51°58' E 001°18'0 0.0
2018-Jun-21 12:58N 51°58' E 001°18'0 0.0
2018-Jun-21 12:28N 51°58' E 001°18'0 0.0
2018-Jun-21 11:58N 51°58' E 001°18'0 0.0
2018-Jun-21 11:28N 51°58' E 001°18'0 0.0
2018-Jun-21 11:00N 51°58' E 001°18'0 0.0
2018-Jun-21 10:30N 51°58' E 001°18'0 0.0
2018-Jun-21 10:00N 51°58' E 001°18'0 0.0
2018-Jun-21 09:30N 51°58' E 001°18'0 0.0
2018-Jun-21 08:59N 51°58' E 001°18'0 0.0
2018-Jun-21 08:29N 51°58' E 001°18'0 0.0
2018-Jun-21 07:59N 51°58' E 001°18'0 0.0
2018-Jun-21 07:29N 51°58' E 001°18'0 0.0
2018-Jun-21 06:59N 51°58' E 001°18'0 0.0
2018-Jun-21 06:28N 51°58' E 001°18'0 0.0
2018-Jun-21 05:58N 51°58' E 001°18'0 0.0
2018-Jun-21 05:28N 51°58' E 001°18'0 0.0
2018-Jun-21 04:58N 51°58' E 001°18'0 0.0
2018-Jun-21 04:30N 51°58' E 001°18'0 0.0
2018-Jun-21 04:00N 51°58' E 001°18'0 0.0
2018-Jun-21 03:30N 51°58' E 001°18'0 0.0
2018-Jun-21 03:00N 51°58' E 001°18'0 0.0
2018-Jun-21 02:30N 51°58' E 001°18'0 0.0
2018-Jun-21 01:59N 51°58' E 001°18'0 0.0
2018-Jun-21 01:29N 51°58' E 001°18'0 0.0
2018-Jun-21 00:59N 51°58' E 001°18'0 0.0
2018-Jun-21 00:29N 51°58' E 001°18'0 0.0
2018-Jun-20 23:59N 51°58' E 001°18'0 0.0
2018-Jun-20 23:28N 51°58' E 001°18'0 0.0
2018-Jun-20 22:58N 51°58' E 001°18'0 0.0
2018-Jun-20 22:28N 51°58' E 001°18'0 0.0
2018-Jun-20 21:58N 51°58' E 001°18'0 0.0
2018-Jun-20 21:31N 51°58' E 001°18'0 0.0
2018-Jun-20 21:00N 51°58' E 001°18'0 0.0
2018-Jun-20 20:30N 51°58' E 001°18'0 0.0
2018-Jun-20 20:00N 51°58' E 001°18'0 0.0
2018-Jun-20 19:30N 51°58' E 001°18'0 0.0
2018-Jun-20 18:59N 51°58' E 001°18'0 0.0
2018-Jun-20 18:29N 51°58' E 001°18'0 0.0
2018-Jun-20 17:59N 51°58' E 001°18'0 0.0
2018-Jun-20 17:29N 51°58' E 001°18'0 0.0
2018-Jun-20 16:59N 51°58' E 001°18'0 0.0
2018-Jun-20 16:28N 51°58' E 001°18'0 0.0
2018-Jun-20 15:58N 51°58' E 001°18'0 0.0
2018-Jun-20 15:28N 51°58' E 001°18'0 0.0
2018-Jun-20 14:58N 51°58' E 001°18'0 0.0
2018-Jun-20 14:30N 51°58' E 001°18'0 0.0
2018-Jun-20 14:00N 51°58' E 001°18'0 0.0
2018-Jun-20 13:30N 51°58' E 001°18'0 0.0
2018-Jun-20 13:00N 51°58' E 001°18'0 0.0
2018-Jun-20 12:30N 51°58' E 001°18'0 0.0
2018-Jun-20 11:59N 51°58' E 001°18'0 0.0
2018-Jun-20 11:29N 51°58' E 001°18'0 0.0
2018-Jun-20 10:59N 51°58' E 001°18'0 0.0
2018-Jun-20 10:29N 51°58' E 001°18'0 0.0
2018-Jun-20 09:58N 51°58' E 001°18'0 0.0
2018-Jun-20 09:28N 51°58' E 001°18'0 0.0
2018-Jun-20 08:58N 51°58' E 001°18'0 0.0
2018-Jun-20 08:28N 51°58' E 001°18'0 0.0
2018-Jun-20 07:58N 51°58' E 001°18'0 0.0
2018-Jun-20 07:30N 51°58' E 001°18'0 0.0
2018-Jun-20 07:00N 51°58' E 001°18'0 0.0
2018-Jun-20 06:30N 51°58' E 001°18'0 0.0
2018-Jun-20 06:00N 51°58' E 001°18'0 0.0
2018-Jun-20 05:30N 51°58' E 001°18'0 0.0
2018-Jun-20 04:59N 51°58' E 001°18'0 0.0
2018-Jun-20 04:29N 51°58' E 001°18'0 0.0
2018-Jun-20 03:59N 51°58' E 001°18'0 0.0
2018-Jun-20 03:29N 51°58' E 001°18'0 0.0
2018-Jun-20 02:58N 51°58' E 001°18'0 0.0
2018-Jun-20 02:28N 51°58' E 001°18'0 0.0
2018-Jun-20 01:58N 51°58' E 001°18'0 0.0
2018-Jun-20 01:28N 51°58' E 001°18'0 0.0
2018-Jun-20 00:58N 51°58' E 001°18'0 0.0
2018-Jun-20 00:30N 51°58' E 001°18'0 0.0
2018-Jun-20 00:00N 51°58' E 001°18'0 0.0
2018-Jun-19 23:30N 51°58' E 001°18'0 0.0
2018-Jun-19 23:00N 51°58' E 001°18'0 0.0
2018-Jun-19 22:29N 51°58' E 001°18'0 0.0
2018-Jun-19 21:59N 51°58' E 001°18'0 0.0
2018-Jun-19 21:30N 51°58' E 001°18'1 1.1
2018-Jun-19 21:00N 51°57' E 001°18'2 5.0
2018-Jun-19 20:30N 51°56' E 001°22'612.2
2018-Jun-19 20:00N 51°56' E 001°32'5 9.9
2018-Jun-19 19:30N 51°52' E 001°34'2 4.8
2018-Jun-19 19:00N 51°52' E 001°38'1 1.2
2018-Jun-19 18:30N 51°52' E 001°39'1 1.7
2018-Jun-19 18:00N 51°52' E 001°40'1 2.7
2018-Jun-19 17:30N 51°51' E 001°42'3 5.1
2018-Jun-19 17:01N 51°54' E 001°42'0 0.7
2018-Jun-19 16:28N 51°54' E 001°42'0 0.2
2018-Jun-19 16:00N 51°54' E 001°42'0 0.4
2018-Jun-19 15:30N 51°54' E 001°41'0 0.2
2018-Jun-19 15:00N 51°54' E 001°42'0 0.1
2018-Jun-19 14:30N 51°54' E 001°42'0 0.0
2018-Jun-19 14:00N 51°54' E 001°42'0 0.0
2018-Jun-19 13:29N 51°54' E 001°42'0 0.0
2018-Jun-19 12:59N 51°54' E 001°42'0 0.1
2018-Jun-19 12:29N 51°54' E 001°41'0 0.0
2018-Jun-19 11:59N 51°54' E 001°41'0 0.0
2018-Jun-19 11:28N 51°54' E 001°41'0 0.2
2018-Jun-19 10:58N 51°54' E 001°42'0 0.4
2018-Jun-19 10:28N 51°54' E 001°42'0 0.2
2018-Jun-19 09:58N 51°54' E 001°42'0 0.1
2018-Jun-19 09:31N 51°54' E 001°42'0 0.1
2018-Jun-19 09:00N 51°54' E 001°42'0 0.0
2018-Jun-19 08:30N 51°54' E 001°42'0 0.0
2018-Jun-19 08:00N 51°54' E 001°42'0 0.0
2018-Jun-19 07:30N 51°54' E 001°42'0 0.5
2018-Jun-19 07:00N 51°54' E 001°42'0 4.8 280 / 151023.0 5.4 21.213.615.0
2018-Jun-19 06:56N 51°54' E 001°42'0 0.0
2018-Jun-19 06:29N 51°54' E 001°42'0 0.0
2018-Jun-19 05:59N 51°54' E 001°42'0 0.0
2018-Jun-19 05:29N 51°54' E 001°42'0 0.1
2018-Jun-19 04:59N 51°54' E 001°42'0 0.1
2018-Jun-19 04:28N 51°54' E 001°42'0 0.0
2018-Jun-19 03:58N 51°54' E 001°42'0 0.1
2018-Jun-19 03:28N 51°54' E 001°42'0 0.3
2018-Jun-19 02:58N 51°54' E 001°42'0 0.2
2018-Jun-19 02:31N 51°54' E 001°42'0 0.0
2018-Jun-19 01:58N 51°54' E 001°42'0 0.0
2018-Jun-19 01:28N 51°54' E 001°42'0 0.0
2018-Jun-19 00:58N 51°54' E 001°42'0 0.0
2018-Jun-19 00:28N 51°54' E 001°42'0 0.0
2018-Jun-19 00:00N 51°54' E 001°42'0 0.3
2018-Jun-18 23:30N 51°54' E 001°42'0 0.3
2018-Jun-18 23:00N 51°54' E 001°42'0 0.2
2018-Jun-18 22:30N 51°54' E 001°42'0 0.1
2018-Jun-18 22:00N 51°54' E 001°42'0 0.1
2018-Jun-18 21:29N 51°54' E 001°42'0 0.1
2018-Jun-18 20:59N 51°54' E 001°42'0 0.0
2018-Jun-18 20:29N 51°54' E 001°42'0 0.5
2018-Jun-18 20:00N 51°54' E 001°42'018.7 230 / 251018.6 5.4 18.3 9.115.0
2018-Jun-18 19:59N 51°54' E 001°42'0 0.1
2018-Jun-18 19:28N 51°54' E 001°42'0 0.0
2018-Jun-18 18:58N 51°54' E 001°42'0 0.0
2018-Jun-18 18:28N 51°54' E 001°42'0 0.0
2018-Jun-18 17:58N 51°54' E 001°42'0 0.0
2018-Jun-18 17:28N 51°54' E 001°42'0 0.0
2018-Jun-18 17:00N 51°54' E 001°42'0 0.0
2018-Jun-18 16:30N 51°54' E 001°42'0 0.0
2018-Jun-18 16:00N 51°54' E 001°42'0 0.0
2018-Jun-18 15:30N 51°54' E 001°42'0 0.3
2018-Jun-18 15:00N 51°54' E 001°42'0 0.4
2018-Jun-18 14:29N 51°54' E 001°42'0 0.3
2018-Jun-18 14:01N 51°54' E 001°42'4 7.8
2018-Jun-18 13:31N 51°52' E 001°47'612.4
2018-Jun-18 13:01N 51°46' E 001°49'612.5
2018-Jun-18 12:30N 51°40' E 001°50'612.8
2018-Jun-18 12:01N 51°34' E 001°54'815.1
2018-Jun-18 11:31N 51°27' E 002°00'611.5
2018-Jun-18 11:00N 51°21' E 001°60'714.0
2018-Jun-18 10:31N 51°16' E 001°53'714.0
2018-Jun-18 10:00N 51°11' E 001°46'713.8
2018-Jun-18 09:31N 51°05' E 001°39'714.1
2018-Jun-18 09:00N 51°00' E 001°31'714.0
2018-Jun-18 08:30N 50°54' E 001°25'714.5
2018-Jun-18 08:00N 50°47' E 001°22'6353.2
2018-Jun-18 08:00N 50°42' E 001°18'2 3.5 220 / 191020.9 1.1 18.713.114.0
2018-Jun-18 07:30N 50°40' E 001°19'713.8
2018-Jun-18 07:00N 50°36' E 001°11'714.1
2018-Jun-18 06:29N 50°32' E 001°01'714.3
2018-Jun-18 06:00N 50°30' E 000°51'714.4
2018-Jun-18 05:30N 50°28' E 000°40'814.4
2018-Jun-18 04:55N 50°25' E 000°27'11614.8
2018-Jun-17 21:03N 49°55' W 002°28'714.7
2018-Jun-17 20:33N 49°53' W 002°38'114.7
2018-Jun-17 20:29N 49°53' W 002°40'814.7
2018-Jun-17 19:57N 49°51' W 002°52'1114.6
2018-Jun-17 19:14N 49°45' W 003°06'514.8
2018-Jun-17 18:54N 49°42' W 003°12'8815.5
2018-Jun-17 13:14N 48°56' W 005°07'313.7
2018-Jun-17 13:00N 48°55' W 005°11'713.5
2018-Jun-17 12:31N 48°51' W 005°20'713.7
2018-Jun-17 12:00N 48°48' W 005°29'4224.7
2018-Jun-17 12:00N 48°48' W 005°24'48915.0 260 / 201019.2 2.2 16.514.914.0
2018-Jun-16 03:23N 41°16' W 009°50'814.8
2018-Jun-16 02:51N 41°08' W 009°50'514.8
2018-Jun-16 02:30N 41°03' W 009°50'714.6
2018-Jun-16 02:00N 40°56' W 009°50'714.6
2018-Jun-16 01:30N 40°48' W 009°50'714.5
2018-Jun-16 01:00N 40°41' W 009°50'714.4
2018-Jun-16 00:30N 40°34' W 009°50'714.6
2018-Jun-16 00:00N 40°27' W 009°50'714.6
2018-Jun-15 23:31N 40°19' W 009°51'714.7
2018-Jun-15 23:00N 40°12' W 009°51'714.9
2018-Jun-15 22:30N 40°04' W 009°51'714.6
2018-Jun-15 22:00N 39°57' W 009°51'714.4
2018-Jun-15 21:30N 39°50' W 009°51'914.7
2018-Jun-15 20:55N 39°41' W 009°51'614.8
2018-Jun-15 20:30N 39°35' W 009°51'1314.9
2018-Jun-15 19:39N 39°22' W 009°51'214.7
2018-Jun-15 19:30N 39°20' W 009°51'714.7
2018-Jun-15 19:00N 39°13' W 009°51'714.8
2018-Jun-15 18:30N 39°06' W 009°51'714.7
2018-Jun-15 18:00N 38°58' W 009°51'5296.5
2018-Jun-15 18:00N 38°54' W 009°48'4 7.6 360 / 301018.9 5.4 18.113.016.0
2018-Jun-15 17:30N 38°51' W 009°50'815.0
2018-Jun-15 17:00N 38°43' W 009°50'815.1
2018-Jun-15 16:30N 38°36' W 009°50'815.2
2018-Jun-15 16:00N 38°28' W 009°49'815.1
2018-Jun-15 15:30N 38°21' W 009°46'815.4
2018-Jun-15 15:00N 38°13' W 009°44'917.7
2018-Jun-15 14:29N 38°05' W 009°41'918.4
2018-Jun-15 14:00N 37°56' W 009°39'918.4
2018-Jun-15 13:30N 37°47' W 009°36'918.4
2018-Jun-15 13:00N 37°38' W 009°34'918.8
2018-Jun-15 12:30N 37°29' W 009°31'918.3
2018-Jun-15 12:00N 37°20' W 009°28'7816.3
2018-Jun-15 07:13N 36°30' W 008°13'618.3
2018-Jun-15 06:53N 36°28' W 008°06'12118.5
2018-Jun-15 00:20N 35°58' W 005°41'619.3
2018-Jun-15 00:00N 35°58' W 005°33'817.0
2018-Jun-14 23:30N 36°01' W 005°23'714.4
2018-Jun-14 23:00N 36°02' W 005°14'8016.0
2018-Jun-14 18:00N 36°12' W 003°36'11422.8 1012.7 5.4 25.219.818.0
2018-Jun-14 13:00N 36°54' W 001°24'5613.5 140 / 121014.210.8 24.817.617.0
2018-Jun-14 08:51N 37°34' W 000°35'818.4
2018-Jun-14 08:24N 37°41' W 000°29'718.5
2018-Jun-14 08:00N 37°47' W 000°23'918.3
2018-Jun-14 07:30N 37°54' W 000°16'1018.3
2018-Jun-14 06:59N 38°02' W 000°09'2118.2
2018-Jun-14 05:49N 38°20' E 000°04'718.4
2018-Jun-14 05:28N 38°26' E 000°08'1318.4
2018-Jun-14 04:44N 38°37' E 000°17'418.5
2018-Jun-14 04:30N 38°41' E 000°20'5117.4
2018-Jun-14 01:35N 39°23' W 000°15'115.9
2018-Jun-14 01:30N 39°24' W 000°16'3 5.7
2018-Jun-14 01:00N 39°26' W 000°19'0 0.4
2018-Jun-14 00:29N 39°26' W 000°19'0 0.0
2018-Jun-13 23:56N 39°26' W 000°19'0 0.0
2018-Jun-13 23:28N 39°26' W 000°19'0 0.0
2018-Jun-13 22:37N 39°26' W 000°19'0 0.0
2018-Jun-13 22:22N 39°26' W 000°19'0 0.0
2018-Jun-13 21:58N 39°26' W 000°19'0 0.0
2018-Jun-13 20:48N 39°26' W 000°19'0 0.0
2018-Jun-13 20:30N 39°26' W 000°19'0 0.0
2018-Jun-13 19:57N 39°26' W 000°19'0 0.0
2018-Jun-13 19:27N 39°26' W 000°19'0 0.0
2018-Jun-13 18:59N 39°26' W 000°19'0 0.0
2018-Jun-13 18:29N 39°26' W 000°19'0 0.0
2018-Jun-13 17:59N 39°26' W 000°19'0 0.0
2018-Jun-13 17:26N 39°26' W 000°19'0 0.0
2018-Jun-13 16:56N 39°26' W 000°19'0 0.0
2018-Jun-13 16:28N 39°26' W 000°19'0 0.0
2018-Jun-13 15:58N 39°26' W 000°19'0 0.0
2018-Jun-13 15:25N 39°26' W 000°19'  
Track history (hours):
 
Tides and Currents Weather Stations Pressure Air Temp Water Temp Dewpoint Dewpoint Depression Visibility Wind Speed Wind Dir Waves Ship Positions

Buxhai

Last reported at 2018-Jun-23 15:00 UTC. Time now 2018-Jun-23 15:22 UTC.
Position N 53°34' E 009°46'.

Length 282 m; draft 9.9 m.

Type: Ship (hazmat cat A). MMSI: 229384000.

Date/timePositionNaut miles runAvg speedWind from/ knotsBaromVisibWave heightAir tempDewpointWater temp
2018-Jun-23 15:00N 53°34' E 009°46'4 8.5
2018-Jun-23 14:30N 53°34' E 009°39'510.0
2018-Jun-23 14:00N 53°37' E 009°33'5 9.2
2018-Jun-23 13:30N 53°42' E 009°30'5 9.8
2018-Jun-23 13:00N 53°45' E 009°24'510.9
2018-Jun-23 12:30N 53°50' E 009°21'612.0
2018-Jun-23 12:00N 53°53' E 009°11'5 9.3
2018-Jun-23 11:30N 53°52' E 009°04'713.9
2018-Jun-23 11:01N 53°50' E 008°52'611.7
2018-Jun-23 10:30N 53°52' E 008°43'1113.7
2018-Jun-23 09:44N 53°59' E 008°28'514.7
2018-Jun-23 09:24N 53°60' E 008°20'512.6
2018-Jun-23 09:00N 53°60' E 008°12'5 9.9
2018-Jun-23 08:29N 53°59' E 008°03'3212.8
2018-Jun-23 06:00N 53°48' E 007°12'6512.8 330 / 251024.5 5.4 13.4 7.216.0
2018-Jun-23 00:54N 53°33' E 005°25'513.4
2018-Jun-23 00:30N 53°32' E 005°17'713.3
2018-Jun-23 00:00N 53°29' E 005°06'613.3
2018-Jun-22 23:30N 53°27' E 004°56'713.6
2018-Jun-22 23:00N 53°25' E 004°45'713.3
2018-Jun-22 22:30N 53°19' E 004°38'713.4
2018-Jun-22 22:00N 53°13' E 004°33'713.3
2018-Jun-22 21:30N 53°07' E 004°28'713.2
2018-Jun-22 21:00N 53°01' E 004°24'713.2
2018-Jun-22 20:30N 52°56' E 004°19'713.3
2018-Jun-22 20:00N 52°50' E 004°13'713.2
2018-Jun-22 19:30N 52°44' E 004°07'918.2
2018-Jun-22 19:00N 52°36' E 004°00'3 7.2 330 / 181029.8 5.4 13.6 6.915.0
2018-Jun-22 18:37N 52°34' E 003°57'213.5
2018-Jun-22 18:27N 52°32' E 003°55'613.3
2018-Jun-22 18:00N 52°26' E 003°53'713.4
2018-Jun-22 17:30N 52°20' E 003°52'713.2
2018-Jun-22 17:00N 52°13' E 003°53'713.7
2018-Jun-22 16:30N 52°06' E 003°55'5 9.7
2018-Jun-22 16:01N 52°02' E 003°54'612.4
2018-Jun-22 15:30N 51°59' E 004°03'2 3.7
2018-Jun-22 15:00N 51°58' E 004°04'0 0.7
2018-Jun-22 14:27N 51°58' E 004°04'0 0.0
2018-Jun-22 14:00N 51°58' E 004°04'0 0.0
2018-Jun-22 13:30N 51°58' E 004°04'0 0.0
2018-Jun-22 12:53N 51°58' E 004°04'0 0.0
2018-Jun-22 12:29N 51°58' E 004°04'0 0.0
2018-Jun-22 11:59N 51°58' E 004°04'0 0.0
2018-Jun-22 11:29N 51°58' E 004°04'0 0.0
2018-Jun-22 10:59N 51°58' E 004°04'0 0.0
2018-Jun-22 10:28N 51°58' E 004°04'0 0.0
2018-Jun-22 09:58N 51°58' E 004°04'0 0.0
2018-Jun-22 09:28N 51°58' E 004°04'0 0.0
2018-Jun-22 08:58N 51°58' E 004°04'0 0.0
2018-Jun-22 08:30N 51°58' E 004°04'0 0.0
2018-Jun-22 08:00N 51°58' E 004°04'0 0.0
2018-Jun-22 07:27N 51°58' E 004°04'0 0.0
2018-Jun-22 07:00N 51°58' E 004°04'0 0.0
2018-Jun-22 06:30N 51°58' E 004°04'0 0.0
2018-Jun-22 06:00N 51°58' E 004°04'0 0.0
2018-Jun-22 05:30N 51°58' E 004°04'0 0.0
2018-Jun-22 04:59N 51°58' E 004°04'0 0.0
2018-Jun-22 04:29N 51°58' E 004°04'0 0.0
2018-Jun-22 03:59N 51°58' E 004°04'0 0.0
2018-Jun-22 03:29N 51°58' E 004°04'0 0.0
2018-Jun-22 03:01N 51°58' E 004°04'0 0.0
2018-Jun-22 02:28N 51°58' E 004°04'0 0.0
2018-Jun-22 01:58N 51°58' E 004°04'0 0.0
2018-Jun-22 01:28N 51°58' E 004°04'0 0.0
2018-Jun-22 00:58N 51°58' E 004°04'0 0.0
2018-Jun-22 00:28N 51°58' E 004°04'0 0.0
2018-Jun-22 00:00N 51°58' E 004°04'0 0.0
2018-Jun-21 23:30N 51°58' E 004°04'0 0.0
2018-Jun-21 23:00N 51°58' E 004°04'1 1.5
2018-Jun-21 22:30N 51°58' E 004°05'3 5.0
2018-Jun-21 22:00N 51°59' E 004°02'3 6.3
2018-Jun-21 21:30N 52°00' E 003°57'4 8.1
2018-Jun-21 21:00N 52°00' E 003°50'5 9.2
2018-Jun-21 20:30N 51°59' E 003°43'714.5
2018-Jun-21 20:00N 51°57' E 003°31'4520.6
2018-Jun-21 17:49N 51°53' E 002°19'620.2
2018-Jun-21 17:31N 51°52' E 002°09'1019.6
2018-Jun-21 17:00N 51°49' E 001°54'917.5
2018-Jun-21 16:31N 51°50' E 001°40'611.2
2018-Jun-21 16:00N 51°54' E 001°34'612.5
2018-Jun-21 15:30N 51°56' E 001°24'4 8.1
2018-Jun-21 15:00N 51°57' E 001°18'0 0.1
2018-Jun-21 14:29N 51°58' E 001°18'0 0.0
2018-Jun-21 13:59N 51°58' E 001°18'0 0.0
2018-Jun-21 13:28N 51°58' E 001°18'0 0.0
2018-Jun-21 12:58N 51°58' E 001°18'0 0.0
2018-Jun-21 12:28N 51°58' E 001°18'0 0.0
2018-Jun-21 11:58N 51°58' E 001°18'0 0.0
2018-Jun-21 11:28N 51°58' E 001°18'0 0.0
2018-Jun-21 11:00N 51°58' E 001°18'0 0.0
2018-Jun-21 10:30N 51°58' E 001°18'0 0.0
2018-Jun-21 10:00N 51°58' E 001°18'0 0.0
2018-Jun-21 09:30N 51°58' E 001°18'0 0.0
2018-Jun-21 08:59N 51°58' E 001°18'0 0.0
2018-Jun-21 08:29N 51°58' E 001°18'0 0.0
2018-Jun-21 07:59N 51°58' E 001°18'0 0.0
2018-Jun-21 07:29N 51°58' E 001°18'0 0.0
2018-Jun-21 06:59N 51°58' E 001°18'0 0.0
2018-Jun-21 06:28N 51°58' E 001°18'0 0.0
2018-Jun-21 05:58N 51°58' E 001°18'0 0.0
2018-Jun-21 05:28N 51°58' E 001°18'0 0.0
2018-Jun-21 04:58N 51°58' E 001°18'0 0.0
2018-Jun-21 04:30N 51°58' E 001°18'0 0.0
2018-Jun-21 04:00N 51°58' E 001°18'0 0.0
2018-Jun-21 03:30N 51°58' E 001°18'0 0.0
2018-Jun-21 03:00N 51°58' E 001°18'0 0.0
2018-Jun-21 02:30N 51°58' E 001°18'0 0.0
2018-Jun-21 01:59N 51°58' E 001°18'0 0.0
2018-Jun-21 01:29N 51°58' E 001°18'0 0.0
2018-Jun-21 00:59N 51°58' E 001°18'0 0.0
2018-Jun-21 00:29N 51°58' E 001°18'0 0.0
2018-Jun-20 23:59N 51°58' E 001°18'0 0.0
2018-Jun-20 23:28N 51°58' E 001°18'0 0.0
2018-Jun-20 22:58N 51°58' E 001°18'0 0.0
2018-Jun-20 22:28N 51°58' E 001°18'0 0.0
2018-Jun-20 21:58N 51°58' E 001°18'0 0.0
2018-Jun-20 21:31N 51°58' E 001°18'0 0.0
2018-Jun-20 21:00N 51°58' E 001°18'0 0.0
2018-Jun-20 20:30N 51°58' E 001°18'0 0.0
2018-Jun-20 20:00N 51°58' E 001°18'0 0.0
2018-Jun-20 19:30N 51°58' E 001°18'0 0.0
2018-Jun-20 18:59N 51°58' E 001°18'0 0.0
2018-Jun-20 18:29N 51°58' E 001°18'0 0.0
2018-Jun-20 17:59N 51°58' E 001°18'0 0.0
2018-Jun-20 17:29N 51°58' E 001°18'0 0.0
2018-Jun-20 16:59N 51°58' E 001°18'0 0.0
2018-Jun-20 16:28N 51°58' E 001°18'0 0.0
2018-Jun-20 15:58N 51°58' E 001°18'0 0.0
2018-Jun-20 15:28N 51°58' E 001°18'0 0.0
2018-Jun-20 14:58N 51°58' E 001°18'0 0.0
2018-Jun-20 14:30N 51°58' E 001°18'0 0.0
2018-Jun-20 14:00N 51°58' E 001°18'0 0.0
2018-Jun-20 13:30N 51°58' E 001°18'0 0.0
2018-Jun-20 13:00N 51°58' E 001°18'0 0.0
2018-Jun-20 12:30N 51°58' E 001°18'0 0.0
2018-Jun-20 11:59N 51°58' E 001°18'0 0.0
2018-Jun-20 11:29N 51°58' E 001°18'0 0.0
2018-Jun-20 10:59N 51°58' E 001°18'0 0.0
2018-Jun-20 10:29N 51°58' E 001°18'0 0.0
2018-Jun-20 09:58N 51°58' E 001°18'0 0.0
2018-Jun-20 09:28N 51°58' E 001°18'0 0.0
2018-Jun-20 08:58N 51°58' E 001°18'0 0.0
2018-Jun-20 08:28N 51°58' E 001°18'0 0.0
2018-Jun-20 07:58N 51°58' E 001°18'0 0.0
2018-Jun-20 07:30N 51°58' E 001°18'0 0.0
2018-Jun-20 07:00N 51°58' E 001°18'0 0.0
2018-Jun-20 06:30N 51°58' E 001°18'0 0.0
2018-Jun-20 06:00N 51°58' E 001°18'0 0.0
2018-Jun-20 05:30N 51°58' E 001°18'0 0.0
2018-Jun-20 04:59N 51°58' E 001°18'0 0.0
2018-Jun-20 04:29N 51°58' E 001°18'0 0.0
2018-Jun-20 03:59N 51°58' E 001°18'0 0.0
2018-Jun-20 03:29N 51°58' E 001°18'0 0.0
2018-Jun-20 02:58N 51°58' E 001°18'0 0.0
2018-Jun-20 02:28N 51°58' E 001°18'0 0.0
2018-Jun-20 01:58N 51°58' E 001°18'0 0.0
2018-Jun-20 01:28N 51°58' E 001°18'0 0.0
2018-Jun-20 00:58N 51°58' E 001°18'0 0.0
2018-Jun-20 00:30N 51°58' E 001°18'0 0.0
2018-Jun-20 00:00N 51°58' E 001°18'0 0.0
2018-Jun-19 23:30N 51°58' E 001°18'0 0.0
2018-Jun-19 23:00N 51°58' E 001°18'0 0.0
2018-Jun-19 22:29N 51°58' E 001°18'0 0.0
2018-Jun-19 21:59N 51°58' E 001°18'0 0.0
2018-Jun-19 21:30N 51°58' E 001°18'1 1.1
2018-Jun-19 21:00N 51°57' E 001°18'2 5.0
2018-Jun-19 20:30N 51°56' E 001°22'612.2
2018-Jun-19 20:00N 51°56' E 001°32'5 9.9
2018-Jun-19 19:30N 51°52' E 001°34'2 4.8
2018-Jun-19 19:00N 51°52' E 001°38'1 1.2
2018-Jun-19 18:30N 51°52' E 001°39'1 1.7
2018-Jun-19 18:00N 51°52' E 001°40'1 2.7
2018-Jun-19 17:30N 51°51' E 001°42'3 5.1
2018-Jun-19 17:01N 51°54' E 001°42'0 0.7
2018-Jun-19 16:28N 51°54' E 001°42'0 0.2
2018-Jun-19 16:00N 51°54' E 001°42'0 0.4
2018-Jun-19 15:30N 51°54' E 001°41'0 0.2
2018-Jun-19 15:00N 51°54' E 001°42'0 0.1
2018-Jun-19 14:30N 51°54' E 001°42'0 0.0
2018-Jun-19 14:00N 51°54' E 001°42'0 0.0
2018-Jun-19 13:29N 51°54' E 001°42'0 0.0
2018-Jun-19 12:59N 51°54' E 001°42'0 0.1
2018-Jun-19 12:29N 51°54' E 001°41'0 0.0
2018-Jun-19 11:59N 51°54' E 001°41'0 0.0
2018-Jun-19 11:28N 51°54' E 001°41'0 0.2
2018-Jun-19 10:58N 51°54' E 001°42'0 0.4
2018-Jun-19 10:28N 51°54' E 001°42'0 0.2
2018-Jun-19 09:58N 51°54' E 001°42'0 0.1
2018-Jun-19 09:31N 51°54' E 001°42'0 0.1
2018-Jun-19 09:00N 51°54' E 001°42'0 0.0
2018-Jun-19 08:30N 51°54' E 001°42'0 0.0
2018-Jun-19 08:00N 51°54' E 001°42'0 0.0
2018-Jun-19 07:30N 51°54' E 001°42'0 0.5
2018-Jun-19 07:00N 51°54' E 001°42'0 4.8 280 / 151023.0 5.4 21.213.615.0
2018-Jun-19 06:56N 51°54' E 001°42'0 0.0
2018-Jun-19 06:29N 51°54' E 001°42'0 0.0
2018-Jun-19 05:59N 51°54' E 001°42'0 0.0
2018-Jun-19 05:29N 51°54' E 001°42'0 0.1
2018-Jun-19 04:59N 51°54' E 001°42'0 0.1
2018-Jun-19 04:28N 51°54' E 001°42'0 0.0
2018-Jun-19 03:58N 51°54' E 001°42'0 0.1
2018-Jun-19 03:28N 51°54' E 001°42'0 0.3
2018-Jun-19 02:58N 51°54' E 001°42'0 0.2
2018-Jun-19 02:31N 51°54' E 001°42'0 0.0
2018-Jun-19 01:58N 51°54' E 001°42'0 0.0
2018-Jun-19 01:28N 51°54' E 001°42'0 0.0
2018-Jun-19 00:58N 51°54' E 001°42'0 0.0
2018-Jun-19 00:28N 51°54' E 001°42'0 0.0
2018-Jun-19 00:00N 51°54' E 001°42'0 0.3
2018-Jun-18 23:30N 51°54' E 001°42'0 0.3
2018-Jun-18 23:00N 51°54' E 001°42'0 0.2
2018-Jun-18 22:30N 51°54' E 001°42'0 0.1
2018-Jun-18 22:00N 51°54' E 001°42'0 0.1
2018-Jun-18 21:29N 51°54' E 001°42'0 0.1
2018-Jun-18 20:59N 51°54' E 001°42'0 0.0
2018-Jun-18 20:29N 51°54' E 001°42'0 0.5
2018-Jun-18 20:00N 51°54' E 001°42'018.7 230 / 251018.6 5.4 18.3 9.115.0
2018-Jun-18 19:59N 51°54' E 001°42'0 0.1
2018-Jun-18 19:28N 51°54' E 001°42'0 0.0
2018-Jun-18 18:58N 51°54' E 001°42'0 0.0
2018-Jun-18 18:28N 51°54' E 001°42'0 0.0
2018-Jun-18 17:58N 51°54' E 001°42'0 0.0
2018-Jun-18 17:28N 51°54' E 001°42'0 0.0
2018-Jun-18 17:00N 51°54' E 001°42'0 0.0
2018-Jun-18 16:30N 51°54' E 001°42'0 0.0
2018-Jun-18 16:00N 51°54' E 001°42'0 0.0
2018-Jun-18 15:30N 51°54' E 001°42'0 0.3
2018-Jun-18 15:00N 51°54' E 001°42'0 0.4
2018-Jun-18 14:29N 51°54' E 001°42'0 0.3
2018-Jun-18 14:01N 51°54' E 001°42'4 7.8
2018-Jun-18 13:31N 51°52' E 001°47'612.4
2018-Jun-18 13:01N 51°46' E 001°49'612.5
2018-Jun-18 12:30N 51°40' E 001°50'612.8
2018-Jun-18 12:01N 51°34' E 001°54'815.1
2018-Jun-18 11:31N 51°27' E 002°00'611.5
2018-Jun-18 11:00N 51°21' E 001°60'714.0
2018-Jun-18 10:31N 51°16' E 001°53'714.0
2018-Jun-18 10:00N 51°11' E 001°46'713.8
2018-Jun-18 09:31N 51°05' E 001°39'714.1
2018-Jun-18 09:00N 51°00' E 001°31'714.0
2018-Jun-18 08:30N 50°54' E 001°25'714.5
2018-Jun-18 08:00N 50°47' E 001°22'6353.2
2018-Jun-18 08:00N 50°42' E 001°18'2 3.5 220 / 191020.9 1.1 18.713.114.0
2018-Jun-18 07:30N 50°40' E 001°19'713.8
2018-Jun-18 07:00N 50°36' E 001°11'714.1
2018-Jun-18 06:29N 50°32' E 001°01'714.3
2018-Jun-18 06:00N 50°30' E 000°51'714.4
2018-Jun-18 05:30N 50°28' E 000°40'814.4
2018-Jun-18 04:55N 50°25' E 000°27'11614.8
2018-Jun-17 21:03N 49°55' W 002°28'714.7
2018-Jun-17 20:33N 49°53' W 002°38'114.7
2018-Jun-17 20:29N 49°53' W 002°40'814.7
2018-Jun-17 19:57N 49°51' W 002°52'1114.6
2018-Jun-17 19:14N 49°45' W 003°06'514.8
2018-Jun-17 18:54N 49°42' W 003°12'8815.5
2018-Jun-17 13:14N 48°56' W 005°07'313.7
2018-Jun-17 13:00N 48°55' W 005°11'713.5
2018-Jun-17 12:31N 48°51' W 005°20'713.7
2018-Jun-17 12:00N 48°48' W 005°29'4224.7
2018-Jun-17 12:00N 48°48' W 005°24'48915.0 260 / 201019.2 2.2 16.514.914.0
2018-Jun-16 03:23N 41°16' W 009°50'814.8
2018-Jun-16 02:51N 41°08' W 009°50'514.8
2018-Jun-16 02:30N 41°03' W 009°50'714.6
2018-Jun-16 02:00N 40°56' W 009°50'714.6
2018-Jun-16 01:30N 40°48' W 009°50'714.5
2018-Jun-16 01:00N 40°41' W 009°50'714.4
2018-Jun-16 00:30N 40°34' W 009°50'714.6
2018-Jun-16 00:00N 40°27' W 009°50'714.6
2018-Jun-15 23:31N 40°19' W 009°51'714.7
2018-Jun-15 23:00N 40°12' W 009°51'714.9
2018-Jun-15 22:30N 40°04' W 009°51'714.6
2018-Jun-15 22:00N 39°57' W 009°51'714.4
2018-Jun-15 21:30N 39°50' W 009°51'914.7
2018-Jun-15 20:55N 39°41' W 009°51'614.8
2018-Jun-15 20:30N 39°35' W 009°51'1314.9
2018-Jun-15 19:39N 39°22' W 009°51'214.7
2018-Jun-15 19:30N 39°20' W 009°51'714.7
2018-Jun-15 19:00N 39°13' W 009°51'714.8
2018-Jun-15 18:30N 39°06' W 009°51'714.7
2018-Jun-15 18:00N 38°58' W 009°51'5296.5
2018-Jun-15 18:00N 38°54' W 009°48'4 7.6 360 / 301018.9 5.4 18.113.016.0
2018-Jun-15 17:30N 38°51' W 009°50'815.0
2018-Jun-15 17:00N 38°43' W 009°50'815.1
2018-Jun-15 16:30N 38°36' W 009°50'815.2
2018-Jun-15 16:00N 38°28' W 009°49'815.1
2018-Jun-15 15:30N 38°21' W 009°46'815.4
2018-Jun-15 15:00N 38°13' W 009°44'917.7
2018-Jun-15 14:29N 38°05' W 009°41'918.4
2018-Jun-15 14:00N 37°56' W 009°39'918.4
2018-Jun-15 13:30N 37°47' W 009°36'918.4
2018-Jun-15 13:00N 37°38' W 009°34'918.8
2018-Jun-15 12:30N 37°29' W 009°31'918.3
2018-Jun-15 12:00N 37°20' W 009°28'7816.3
2018-Jun-15 07:13N 36°30' W 008°13'618.3
2018-Jun-15 06:53N 36°28' W 008°06'12118.5
2018-Jun-15 00:20N 35°58' W 005°41'619.3
2018-Jun-15 00:00N 35°58' W 005°33'817.0
2018-Jun-14 23:30N 36°01' W 005°23'714.4
2018-Jun-14 23:00N 36°02' W 005°14'8016.0
2018-Jun-14 18:00N 36°12' W 003°36'11422.8 1012.7 5.4 25.219.818.0
2018-Jun-14 13:00N 36°54' W 001°24'5613.5 140 / 121014.210.8 24.817.617.0
2018-Jun-14 08:51N 37°34' W 000°35'818.4
2018-Jun-14 08:24N 37°41' W 000°29'718.5
2018-Jun-14 08:00N 37°47' W 000°23'918.3
2018-Jun-14 07:30N 37°54' W 000°16'1018.3
2018-Jun-14 06:59N 38°02' W 000°09'2118.2
2018-Jun-14 05:49N 38°20' E 000°04'718.4
2018-Jun-14 05:28N 38°26' E 000°08'1318.4
2018-Jun-14 04:44N 38°37' E 000°17'418.5
2018-Jun-14 04:30N 38°41' E 000°20'5117.4
2018-Jun-14 01:35N 39°23' W 000°15'115.9
2018-Jun-14 01:30N 39°24' W 000°16'3 5.7
2018-Jun-14 01:00N 39°26' W 000°19'0 0.4
2018-Jun-14 00:29N 39°26' W 000°19'0 0.0
2018-Jun-13 23:56N 39°26' W 000°19'0 0.0
2018-Jun-13 23:28N 39°26' W 000°19'0 0.0
2018-Jun-13 22:37N 39°26' W 000°19'0 0.0
2018-Jun-13 22:22N 39°26' W 000°19'0 0.0
2018-Jun-13 21:58N 39°26' W 000°19'0 0.0
2018-Jun-13 20:48N 39°26' W 000°19'0 0.0
2018-Jun-13 20:30N 39°26' W 000°19'0 0.0
2018-Jun-13 19:57N 39°26' W 000°19'0 0.0
2018-Jun-13 19:27N 39°26' W 000°19'0 0.0
2018-Jun-13 18:59N 39°26' W 000°19'0 0.0
2018-Jun-13 18:29N 39°26' W 000°19'0 0.0
2018-Jun-13 17:59N 39°26' W 000°19'0 0.0
2018-Jun-13 17:26N 39°26' W 000°19'0 0.0
2018-Jun-13 16:56N 39°26' W 000°19'0 0.0
2018-Jun-13 16:28N 39°26' W 000°19'0 0.0
2018-Jun-13 15:58N 39°26' W 000°19'0 0.0
2018-Jun-13 15:25N 39°26' W 000°19'  

Dump ship's entire track history